createdAt,value
2023-05-18T00:00:43.163Z,4.32
2023-05-18T00:03:09.633Z,4.65
2023-05-18T00:05:36.092Z,4.28
2023-05-18T00:08:02.776Z,4.18
2023-05-18T00:10:30.520Z,4.38
2023-05-18T00:12:56.946Z,3.78
2023-05-18T00:15:25.525Z,3.95
2023-05-18T00:17:51.979Z,4.18
2023-05-18T00:20:18.517Z,3.80
2023-05-18T00:22:45.136Z,3.88
2023-05-18T00:25:11.514Z,3.33
2023-05-18T00:27:39.246Z,3.30
2023-05-18T00:30:06.845Z,3.80
2023-05-18T00:32:33.291Z,4.40
2023-05-18T00:34:59.711Z,3.88
2023-05-18T00:37:26.099Z,3.50
2023-05-18T00:39:52.500Z,3.97
2023-05-18T00:42:18.922Z,4.10
2023-05-18T00:44:46.786Z,4.15
2023-05-18T00:47:13.167Z,4.28
2023-05-18T00:49:39.569Z,3.58
2023-05-18T00:52:06.272Z,3.63
2023-05-18T00:54:32.799Z,4.35
2023-05-18T00:56:59.269Z,4.35
2023-05-18T00:59:25.698Z,4.38
2023-05-18T01:01:53.484Z,3.47
2023-05-18T01:04:19.955Z,4.43
2023-05-18T01:06:46.344Z,3.95
2023-05-18T01:09:13.857Z,4.25
2023-05-18T01:11:55.739Z,4.30
2023-05-18T01:14:32.903Z,4.00
2023-05-18T01:17:08.888Z,4.15
2023-05-18T01:20:03.702Z,4.40
2023-05-18T01:22:42.190Z,4.75
2023-05-18T01:25:17.898Z,4.95
2023-05-18T01:27:46.497Z,4.60
2023-05-18T01:30:15.239Z,5.85
2023-05-18T01:32:41.834Z,5.70
2023-05-18T01:35:09.283Z,5.18
2023-05-18T01:37:35.677Z,5.07
2023-05-18T01:40:03.097Z,6.00
2023-05-18T01:42:30.464Z,5.35
2023-05-18T01:45:03.268Z,5.13
2023-05-18T01:47:31.552Z,5.63
2023-05-18T01:50:02.586Z,5.15
2023-05-18T01:52:32.769Z,6.03
2023-05-18T01:55:03.224Z,5.60
2023-05-18T01:57:31.534Z,5.82
2023-05-18T01:59:59.974Z,5.72
2023-05-18T02:02:27.431Z,5.75
2023-05-18T02:04:53.959Z,5.07
2023-05-18T02:07:20.401Z,6.07
2023-05-18T02:09:46.964Z,5.70
2023-05-18T02:12:13.344Z,5.90
2023-05-18T02:14:39.741Z,6.07
2023-05-18T02:17:07.539Z,5.70
2023-05-18T02:19:34.273Z,5.78
2023-05-18T02:22:00.684Z,5.75
2023-05-18T02:24:27.062Z,6.75
2023-05-18T02:26:53.515Z,5.55
2023-05-18T02:29:20.049Z,5.80
2023-05-18T02:31:46.474Z,5.30
2023-05-18T02:34:14.220Z,5.38
2023-05-18T02:36:40.766Z,5.40
2023-05-18T02:39:07.209Z,5.95
2023-05-18T02:41:33.870Z,6.38
2023-05-18T02:44:00.547Z,5.32
2023-05-18T02:46:27.129Z,5.47
2023-05-18T02:48:53.596Z,5.28
2023-05-18T02:51:21.387Z,6.20
2023-05-18T02:53:47.796Z,4.72
2023-05-18T02:56:14.302Z,5.90
2023-05-18T02:58:40.762Z,6.07
2023-05-18T03:01:07.204Z,4.97
2023-05-18T03:03:33.762Z,5.28
2023-05-18T03:06:00.262Z,5.78
2023-05-18T03:08:28.700Z,5.88
2023-05-18T03:10:55.144Z,5.30
2023-05-18T03:13:21.564Z,5.28
2023-05-18T03:15:47.970Z,5.07
2023-05-18T03:18:14.499Z,5.35
2023-05-18T03:20:40.918Z,5.18
2023-05-18T03:23:07.447Z,5.07
2023-05-18T03:25:35.251Z,5.47
2023-05-18T03:28:01.668Z,5.45
2023-05-18T03:30:29.152Z,6.07
2023-05-18T03:32:55.560Z,5.70
2023-05-18T03:35:22.185Z,5.18
2023-05-18T03:37:48.587Z,6.18
2023-05-18T03:40:15.932Z,5.30
2023-05-18T03:42:43.690Z,5.75
2023-05-18T03:45:11.621Z,5.35
2023-05-18T03:47:38.817Z,5.78
2023-05-18T03:50:06.921Z,4.80
2023-05-18T03:52:33.805Z,5.25
2023-05-18T03:55:00.940Z,4.68
2023-05-18T03:57:28.418Z,5.18
2023-05-18T03:59:56.738Z,5.30
2023-05-18T04:02:23.286Z,4.88
2023-05-18T04:04:49.777Z,4.35
2023-05-18T04:07:16.700Z,5.63
2023-05-18T04:09:43.899Z,4.82
2023-05-18T04:12:10.514Z,4.60
2023-05-18T04:14:37.127Z,4.72
2023-05-18T04:17:05.239Z,5.40
2023-05-18T04:19:31.897Z,4.90
2023-05-18T04:21:58.423Z,4.07
2023-05-18T04:24:24.937Z,5.03
2023-05-18T04:26:51.334Z,4.50
2023-05-18T04:29:17.701Z,4.60
2023-05-18T04:31:44.161Z,5.03
2023-05-18T04:34:11.931Z,5.32
2023-05-18T04:36:38.324Z,4.43
2023-05-18T04:39:04.753Z,4.93
2023-05-18T04:41:31.315Z,4.03
2023-05-18T04:43:57.713Z,4.10
2023-05-18T04:46:24.159Z,4.40
2023-05-18T04:48:50.663Z,4.25
2023-05-18T04:51:18.944Z,4.47
2023-05-18T04:53:45.326Z,4.78
2023-05-18T04:56:11.886Z,4.45
2023-05-18T04:58:38.262Z,4.70
2023-05-18T05:01:04.732Z,4.30
2023-05-18T05:03:31.451Z,6.38
2023-05-18T05:05:57.984Z,4.22
2023-05-18T05:08:25.717Z,4.47
2023-05-18T05:10:52.122Z,3.95
2023-05-18T05:13:18.570Z,4.35
2023-05-18T05:15:45.052Z,3.83
2023-05-18T05:18:11.553Z,4.47
2023-05-18T05:20:37.940Z,3.78
2023-05-18T05:23:04.446Z,4.68
2023-05-18T05:25:32.730Z,4.25
2023-05-18T05:27:59.441Z,3.70
2023-05-18T05:30:27.056Z,3.53
2023-05-18T05:32:53.505Z,4.55
2023-05-18T05:35:19.924Z,3.72
2023-05-18T05:37:46.378Z,4.47
2023-05-18T05:40:13.099Z,4.38
2023-05-18T05:42:40.869Z,4.05
2023-05-18T05:45:08.599Z,3.95
2023-05-18T05:47:35.145Z,3.80
2023-05-18T05:50:01.646Z,3.33
2023-05-18T05:52:28.353Z,4.03
2023-05-18T05:54:54.800Z,4.22
2023-05-18T05:57:21.223Z,4.10
2023-05-18T05:59:48.986Z,4.20
2023-05-18T06:02:15.457Z,4.22
2023-05-18T06:04:41.979Z,3.83
2023-05-18T06:07:08.470Z,4.13
2023-05-18T06:09:34.931Z,3.10
2023-05-18T06:12:01.406Z,3.95
2023-05-18T06:14:27.851Z,3.33
2023-05-18T06:16:55.807Z,3.35
2023-05-18T06:19:22.390Z,3.35
2023-05-18T06:21:48.976Z,3.40
2023-05-18T06:24:16.003Z,4.07
2023-05-18T06:26:42.484Z,3.25
2023-05-18T06:29:08.960Z,3.72
2023-05-18T06:31:35.723Z,3.15
2023-05-18T06:34:03.518Z,2.90
2023-05-18T06:36:30.016Z,3.42
2023-05-18T06:38:56.701Z,3.42
2023-05-18T06:41:23.161Z,3.70
2023-05-18T06:43:50.453Z,3.30
2023-05-18T06:46:20.512Z,2.90
2023-05-18T06:48:46.996Z,3.40
2023-05-18T06:51:14.853Z,3.28
2023-05-18T06:53:41.357Z,3.05
2023-05-18T06:56:07.992Z,3.67
2023-05-18T06:58:34.453Z,3.65
2023-05-18T07:01:01.005Z,3.40
2023-05-18T07:03:27.575Z,2.58
2023-05-18T07:05:54.028Z,3.80
2023-05-18T07:08:21.990Z,3.25
2023-05-18T07:10:48.622Z,3.90
2023-05-18T07:13:15.084Z,3.22
2023-05-18T07:15:41.631Z,4.13
2023-05-18T07:18:08.163Z,4.03
2023-05-18T07:20:34.712Z,3.90
2023-05-18T07:23:01.323Z,3.67
2023-05-18T07:25:30.145Z,3.28
2023-05-18T07:27:56.784Z,3.60
2023-05-18T07:30:25.336Z,3.88
2023-05-18T07:32:51.925Z,3.75
2023-05-18T07:35:18.729Z,4.18
2023-05-18T07:37:45.167Z,4.30
2023-05-18T07:40:12.340Z,3.47
2023-05-18T07:42:40.676Z,4.30
2023-05-18T07:45:08.480Z,4.15
2023-05-18T07:47:35.089Z,4.13
2023-05-18T07:50:01.620Z,4.30
2023-05-18T07:52:28.318Z,4.20
2023-05-18T07:54:55.448Z,3.42
2023-05-18T07:57:21.891Z,4.32
2023-05-18T07:59:49.683Z,4.25
2023-05-18T08:02:16.186Z,3.60
2023-05-18T08:04:42.640Z,4.07
2023-05-18T08:07:09.140Z,4.40
2023-05-18T08:09:35.613Z,4.85
2023-05-18T08:12:02.105Z,4.35
2023-05-18T08:14:28.578Z,4.10
2023-05-18T08:16:58.893Z,4.80
2023-05-18T08:19:25.742Z,4.15
2023-05-18T08:21:52.248Z,4.00
2023-05-18T08:24:18.728Z,4.50
2023-05-18T08:26:45.172Z,3.92
2023-05-18T08:29:11.675Z,4.47
2023-05-18T08:31:39.194Z,3.67
2023-05-18T08:34:07.752Z,3.97
2023-05-18T08:36:35.260Z,4.47
2023-05-18T08:39:01.838Z,4.20
2023-05-18T08:41:30.826Z,3.92
2023-05-18T08:44:01.509Z,4.90
2023-05-18T08:46:33.423Z,4.03
2023-05-18T08:49:01.704Z,4.47
2023-05-18T08:51:34.662Z,4.90
2023-05-18T08:54:01.440Z,4.50
2023-05-18T08:56:31.513Z,4.53
2023-05-18T08:58:58.946Z,3.97
2023-05-18T09:01:26.522Z,4.90
2023-05-18T09:03:53.057Z,4.25
2023-05-18T09:06:20.446Z,4.55
2023-05-18T09:08:49.895Z,4.10
2023-05-18T09:11:17.968Z,4.35
2023-05-18T09:13:44.482Z,4.32
2023-05-18T09:16:11.008Z,4.15
2023-05-18T09:18:38.962Z,4.18
2023-05-18T09:21:05.917Z,4.60
2023-05-18T09:23:33.190Z,4.57
2023-05-18T09:26:01.210Z,4.30
2023-05-18T09:28:33.207Z,4.65
2023-05-18T09:30:59.853Z,4.88
2023-05-18T09:33:26.955Z,4.20
2023-05-18T09:35:53.623Z,4.30
2023-05-18T09:38:22.400Z,4.68
2023-05-18T09:40:50.010Z,4.53
2023-05-18T09:43:18.217Z,4.03
2023-05-18T09:45:46.224Z,4.95
2023-05-18T09:48:13.879Z,4.90
2023-05-18T09:50:40.590Z,4.65
2023-05-18T09:53:07.888Z,5.57
2023-05-18T09:55:37.210Z,5.35
2023-05-18T09:58:06.703Z,4.95
2023-05-18T10:00:37.953Z,4.97
2023-05-18T10:03:04.529Z,5.05
2023-05-18T10:05:32.563Z,4.70
2023-05-18T10:08:00.686Z,4.47
2023-05-18T10:10:28.545Z,5.28
2023-05-18T10:12:56.774Z,4.68
2023-05-18T10:15:26.014Z,5.55
2023-05-18T10:17:56.874Z,5.00
2023-05-18T10:20:24.371Z,4.90
2023-05-18T10:22:53.243Z,4.57
2023-05-18T10:25:21.496Z,4.38
2023-05-18T10:27:49.069Z,4.90
2023-05-18T10:30:15.984Z,4.32
2023-05-18T10:32:43.231Z,5.00
2023-05-18T10:35:11.611Z,4.28
2023-05-18T10:37:41.073Z,4.68
2023-05-18T10:40:09.897Z,4.28
2023-05-18T10:42:36.997Z,5.03
2023-05-18T10:45:06.262Z,4.65
2023-05-18T10:47:33.582Z,4.68
2023-05-18T10:50:01.438Z,4.63
2023-05-18T10:52:31.866Z,4.40
2023-05-18T10:54:58.773Z,4.32
2023-05-18T10:57:30.149Z,4.57
2023-05-18T10:59:58.155Z,4.55
2023-05-18T11:02:26.512Z,4.40
2023-05-18T11:04:54.276Z,5.22
2023-05-18T11:07:21.414Z,5.00
2023-05-18T11:09:49.342Z,5.47
2023-05-18T11:12:17.161Z,5.25
2023-05-18T11:14:51.306Z,4.72
2023-05-18T11:17:21.995Z,5.07
2023-05-18T11:20:11.673Z,4.82
2023-05-18T11:22:45.112Z,5.43
2023-05-18T11:25:39.624Z,5.43
2023-05-18T11:28:07.743Z,4.50
2023-05-18T11:30:46.704Z,4.43
2023-05-18T11:33:15.151Z,4.55
2023-05-18T11:36:01.440Z,4.53
2023-05-18T11:38:52.987Z,5.53
2023-05-18T11:41:32.428Z,4.53
2023-05-18T11:44:15.337Z,4.32
2023-05-18T11:46:52.773Z,3.92
2023-05-18T11:49:22.408Z,4.65
2023-05-18T11:52:05.407Z,4.35
2023-05-18T11:54:34.740Z,4.17
2023-05-18T11:57:02.607Z,4.63
2023-05-18T11:59:33.732Z,4.32
2023-05-18T12:02:01.935Z,4.32
2023-05-18T12:04:28.742Z,4.50
2023-05-18T12:06:56.870Z,4.55
2023-05-18T12:09:23.433Z,4.75
2023-05-18T12:11:50.326Z,3.97
2023-05-18T12:14:18.788Z,4.60
2023-05-18T12:16:47.058Z,4.22
2023-05-18T12:19:13.611Z,4.57
2023-05-18T12:21:40.043Z,4.15
2023-05-18T12:24:07.251Z,4.70
2023-05-18T12:26:34.013Z,4.55
2023-05-18T12:29:00.885Z,4.50
2023-05-18T12:31:28.873Z,3.75
2023-05-18T12:33:56.928Z,3.40
2023-05-18T12:36:25.717Z,3.92
2023-05-18T12:38:52.563Z,4.20
2023-05-18T12:41:22.719Z,3.70
2023-05-18T12:43:49.254Z,4.05
2023-05-18T12:46:15.802Z,3.90
2023-05-18T12:48:46.857Z,3.70
2023-05-18T12:51:18.336Z,3.42
2023-05-18T12:53:44.943Z,4.22
2023-05-18T12:56:11.370Z,3.53
2023-05-18T12:58:37.963Z,3.90
2023-05-18T13:01:07.824Z,3.83
2023-05-18T13:03:34.349Z,4.13
2023-05-18T13:06:06.610Z,4.07
2023-05-18T13:08:34.424Z,4.70
2023-05-18T13:13:28.065Z,3.30
2023-05-18T13:15:54.469Z,3.85
2023-05-18T13:18:21.085Z,4.47
2023-05-18T13:20:50.615Z,3.88
2023-05-18T13:23:20.640Z,3.80
2023-05-18T13:25:47.838Z,3.50
2023-05-18T13:28:16.450Z,3.63
2023-05-18T13:30:44.524Z,4.32
2023-05-18T13:33:11.279Z,4.80
2023-05-18T13:35:39.063Z,3.83
2023-05-18T13:38:05.548Z,4.88
2023-05-18T13:40:33.324Z,3.75
2023-05-18T13:42:59.816Z,4.05
2023-05-18T13:45:26.898Z,3.75
2023-05-18T13:47:53.486Z,3.58
2023-05-18T13:50:21.319Z,3.05
2023-05-18T13:52:47.835Z,3.85
2023-05-18T13:55:15.054Z,3.33
2023-05-18T13:57:44.267Z,3.88
2023-05-18T14:00:11.667Z,4.32
2023-05-18T14:02:38.170Z,4.55
2023-05-18T14:05:05.517Z,3.83
2023-05-18T14:07:31.948Z,3.33
2023-05-18T14:09:58.347Z,3.28
2023-05-18T14:12:24.760Z,4.25
2023-05-18T14:14:52.450Z,3.83
2023-05-18T14:17:19.059Z,3.60
2023-05-18T14:19:45.602Z,3.72
2023-05-18T14:22:12.098Z,3.90
2023-05-18T14:24:38.497Z,3.35
2023-05-18T14:27:05.409Z,3.67
2023-05-18T14:29:32.678Z,3.60
2023-05-18T14:32:01.172Z,3.95
2023-05-18T14:34:27.606Z,3.20
2023-05-18T14:36:54.144Z,3.10
2023-05-18T14:39:20.511Z,4.43
2023-05-18T14:41:46.942Z,2.85
2023-05-18T14:44:13.452Z,3.97
2023-05-18T14:46:40.561Z,3.40
2023-05-18T14:49:08.428Z,3.53
2023-05-18T14:51:34.874Z,3.58
2023-05-18T14:54:01.371Z,3.10
2023-05-18T14:56:27.871Z,3.50
2023-05-18T14:58:54.341Z,3.28
2023-05-18T15:01:20.776Z,3.42
2023-05-18T15:03:47.389Z,2.78
2023-05-18T15:06:15.178Z,3.40
2023-05-18T15:08:41.605Z,2.50
2023-05-18T15:11:08.038Z,3.08
2023-05-18T15:13:34.604Z,3.20
2023-05-18T15:16:01.135Z,3.33
2023-05-18T15:18:27.576Z,3.13
2023-05-18T15:20:53.962Z,3.13
2023-05-18T15:23:21.709Z,3.80
2023-05-18T15:25:50.199Z,2.67
2023-05-18T15:28:16.622Z,3.38
2023-05-18T15:30:43.004Z,3.20
2023-05-18T15:33:09.521Z,3.22
2023-05-18T15:35:35.980Z,2.97
2023-05-18T15:38:02.412Z,2.83
2023-05-18T15:40:30.323Z,3.35
2023-05-18T15:42:56.868Z,2.95
2023-05-18T15:45:26.015Z,3.40
2023-05-18T15:47:52.539Z,2.53
2023-05-18T15:50:18.971Z,3.28
2023-05-18T15:52:45.388Z,3.45
2023-05-18T15:55:11.971Z,3.25
2023-05-18T15:57:39.793Z,3.00
2023-05-18T16:00:07.591Z,2.90
2023-05-18T16:02:34.067Z,3.25
2023-05-18T16:05:00.523Z,3.13
2023-05-18T16:07:26.919Z,3.03
2023-05-18T16:09:53.370Z,3.40
2023-05-18T16:12:19.738Z,2.78
2023-05-18T16:14:47.801Z,3.92
2023-05-18T16:17:14.278Z,3.13
2023-05-18T16:19:40.700Z,3.35
2023-05-18T16:22:07.099Z,3.00
2023-05-18T16:24:33.526Z,2.70
2023-05-18T16:26:59.932Z,2.75
2023-05-18T16:29:26.316Z,3.35
2023-05-18T16:31:54.144Z,3.17
2023-05-18T16:34:20.639Z,2.88
2023-05-18T16:36:47.097Z,3.40
2023-05-18T16:39:13.639Z,2.35
2023-05-18T16:41:40.040Z,3.35
2023-05-18T16:44:06.427Z,3.50
2023-05-18T16:46:32.877Z,3.97
2023-05-18T16:49:00.611Z,2.88
2023-05-18T16:51:27.555Z,2.50
2023-05-18T16:53:54.299Z,2.55
2023-05-18T16:56:20.886Z,3.00
2023-05-18T16:58:47.333Z,2.85
2023-05-18T17:01:26.849Z,2.97
2023-05-18T17:03:54.877Z,3.83
2023-05-18T17:06:22.704Z,2.70
2023-05-18T17:08:49.106Z,2.90
2023-05-18T17:11:15.522Z,3.35
2023-05-18T17:13:41.953Z,2.80
2023-05-18T17:16:08.401Z,3.00
2023-05-18T17:18:34.874Z,2.95
2023-05-18T17:21:01.478Z,2.70
2023-05-18T17:23:29.192Z,2.63
2023-05-18T17:26:05.600Z,2.78
2023-05-18T17:28:33.030Z,3.60
2023-05-18T17:30:59.469Z,3.08
2023-05-18T17:33:25.879Z,2.67
2023-05-18T17:35:52.296Z,2.72
2023-05-18T17:38:18.685Z,2.88
2023-05-18T17:40:46.386Z,2.80
2023-05-18T17:43:12.860Z,3.08
2023-05-18T17:45:40.055Z,2.67
2023-05-18T17:48:08.761Z,3.53
2023-05-18T17:50:35.305Z,2.72
2023-05-18T17:53:01.708Z,2.70
2023-05-18T17:55:28.169Z,2.90
2023-05-18T17:57:56.110Z,3.33
2023-05-18T18:00:22.713Z,2.97
2023-05-18T18:02:49.130Z,2.83
2023-05-18T18:05:15.759Z,2.45
2023-05-18T18:07:42.156Z,2.80
2023-05-18T18:10:09.394Z,2.53
2023-05-18T18:12:35.780Z,2.63
2023-05-18T18:15:03.969Z,2.40
2023-05-18T18:17:30.400Z,2.20
2023-05-18T18:19:56.843Z,2.67
2023-05-18T18:22:23.234Z,2.97
2023-05-18T18:24:49.719Z,2.47
2023-05-18T18:27:16.158Z,2.38
2023-05-18T18:29:42.532Z,2.63
2023-05-18T18:32:10.269Z,2.60
2023-05-18T18:34:36.705Z,2.67
2023-05-18T18:37:03.446Z,2.80
2023-05-18T18:39:29.835Z,3.08
2023-05-18T18:41:56.300Z,2.70
2023-05-18T18:44:22.704Z,2.53
2023-05-18T18:46:49.128Z,2.33
2023-05-18T18:49:16.963Z,2.55
2023-05-18T18:51:43.358Z,2.95
2023-05-18T18:54:09.761Z,2.70
2023-05-18T18:56:36.205Z,2.30
2023-05-18T18:59:02.579Z,2.40
2023-05-18T19:01:29.040Z,2.53
2023-05-18T19:03:55.740Z,2.85
2023-05-18T19:06:23.488Z,2.47
2023-05-18T19:08:49.889Z,2.47
2023-05-18T19:11:16.471Z,2.72
2023-05-18T19:13:42.862Z,2.40
2023-05-18T19:16:09.399Z,2.38
2023-05-18T19:18:35.928Z,2.88
2023-05-18T19:21:02.348Z,3.33
2023-05-18T19:23:31.969Z,2.95
2023-05-18T19:25:59.203Z,3.13
2023-05-18T19:28:25.989Z,3.00
2023-05-18T19:30:52.780Z,3.05
2023-05-18T19:33:19.603Z,2.58
2023-05-18T19:35:46.419Z,2.60
2023-05-18T19:38:13.117Z,2.72
2023-05-18T19:40:41.029Z,2.75
2023-05-18T19:43:07.473Z,3.08
2023-05-18T19:45:34.331Z,3.13
2023-05-18T19:48:01.210Z,3.25
2023-05-18T19:50:27.703Z,3.08
2023-05-18T19:52:54.321Z,3.15
2023-05-18T19:55:20.837Z,3.05
2023-05-18T19:57:48.682Z,2.88
2023-05-18T20:00:15.692Z,3.00
2023-05-18T20:02:42.273Z,3.58
2023-05-18T20:05:08.715Z,2.55
2023-05-18T20:07:35.101Z,3.15
2023-05-18T20:10:01.811Z,3.38
2023-05-18T20:12:28.206Z,3.03
2023-05-18T20:14:55.966Z,2.88
2023-05-18T20:17:22.408Z,3.13
2023-05-18T20:19:48.830Z,3.28
2023-05-18T20:22:15.462Z,3.22
2023-05-18T20:24:41.872Z,3.10
2023-05-18T20:27:08.466Z,3.50
2023-05-18T20:29:34.925Z,4.00
2023-05-18T20:32:02.674Z,3.40
2023-05-18T20:34:29.058Z,3.42
2023-05-18T20:36:55.471Z,3.47
2023-05-18T20:39:21.930Z,3.85
2023-05-18T20:41:48.579Z,4.68
2023-05-18T20:44:15.134Z,6.50
2023-05-18T20:46:41.714Z,6.22
2023-05-18T20:49:09.565Z,6.00
2023-05-18T20:51:35.957Z,5.95
2023-05-18T20:54:02.410Z,6.22
2023-05-18T20:56:28.869Z,5.80
2023-05-18T20:58:55.323Z,5.00
2023-05-18T21:01:21.800Z,4.88
2023-05-18T21:03:48.337Z,4.07
2023-05-18T21:06:16.194Z,4.72
2023-05-18T21:08:42.617Z,4.65
2023-05-18T21:11:09.791Z,4.63
2023-05-18T21:13:36.176Z,5.25
2023-05-18T21:16:02.906Z,4.93
2023-05-18T21:18:29.325Z,4.13
2023-05-18T21:20:55.722Z,4.30
2023-05-18T21:23:23.515Z,4.68
2023-05-18T21:25:50.166Z,4.32
2023-05-18T21:28:16.605Z,5.75
2023-05-18T21:30:43.078Z,5.40
2023-05-18T21:33:09.631Z,4.82
2023-05-18T21:35:36.124Z,4.65
2023-05-18T21:38:02.637Z,4.70
2023-05-18T21:40:30.516Z,4.07
2023-05-18T21:42:57.009Z,5.13
2023-05-18T21:45:25.485Z,4.50
2023-05-18T21:47:51.925Z,4.53
2023-05-18T21:50:18.484Z,4.70
2023-05-18T21:52:45.055Z,5.10
2023-05-18T21:55:11.669Z,5.90
2023-05-18T21:57:39.429Z,5.15
2023-05-18T22:00:07.336Z,5.75
2023-05-18T22:02:33.789Z,4.80
2023-05-18T22:05:00.217Z,5.95
2023-05-18T22:07:26.720Z,5.45
2023-05-18T22:09:53.168Z,4.82
2023-05-18T22:12:20.657Z,4.68
2023-05-18T22:14:48.402Z,5.30
2023-05-18T22:17:14.871Z,4.63
2023-05-18T22:19:41.261Z,4.35
2023-05-18T22:22:11.620Z,4.82
2023-05-18T22:24:40.394Z,4.20
2023-05-18T22:27:06.826Z,3.83
2023-05-18T22:29:33.312Z,4.15
2023-05-18T22:32:01.133Z,3.55
2023-05-18T22:34:27.556Z,4.00
2023-05-18T22:36:53.975Z,3.97
2023-05-18T22:39:20.456Z,4.03
2023-05-18T22:41:46.920Z,4.18
2023-05-18T22:44:13.496Z,3.53
2023-05-18T22:46:39.986Z,3.65
2023-05-18T22:49:07.853Z,3.20
2023-05-18T22:51:34.306Z,4.32
2023-05-18T22:54:00.821Z,4.15
2023-05-18T22:56:27.251Z,3.60
2023-05-18T22:58:53.856Z,3.88
2023-05-18T23:01:20.384Z,3.33
2023-05-18T23:03:46.828Z,3.33
2023-05-18T23:06:14.789Z,3.90
2023-05-18T23:08:41.203Z,3.47
2023-05-18T23:11:07.614Z,3.83
2023-05-18T23:13:34.025Z,3.72
2023-05-18T23:16:00.990Z,3.80
2023-05-18T23:18:27.852Z,3.83
2023-05-18T23:20:54.320Z,3.88
2023-05-18T23:23:22.070Z,4.07
2023-05-18T23:25:48.674Z,3.78
2023-05-18T23:28:15.145Z,3.53
2023-05-18T23:30:41.573Z,3.83
2023-05-18T23:33:08.670Z,3.63
2023-05-18T23:35:37.786Z,4.13
2023-05-18T23:38:04.745Z,3.67
2023-05-18T23:40:33.202Z,4.13
2023-05-18T23:43:00.408Z,3.58
2023-05-18T23:45:27.634Z,4.05
2023-05-18T23:47:54.752Z,3.22
2023-05-18T23:50:22.034Z,3.88
2023-05-18T23:52:52.221Z,4.20
2023-05-18T23:55:21.720Z,3.90
2023-05-18T23:57:49.774Z,3.88
